Time;durP1;ratioP1;P1;durP2;ratioP2;P2;SDS_P1;SDS_P2;PMS_P1;PMS_P2;Temp;Humidity;BMP_temperature;BMP_pressure;BME280_temperature;BME280_humidity;BME280_pressure;Samples;Min_cycle;Max_cycle;Signal;HPM_P1;HPM_P2
2021/05/01 00:01:55;;;;;;;1.20;1.02;;;4.00;99.90;;;;;;4961991;28;20053;-65
2021/05/01 00:04:21;;;;;;;1.77;1.60;;;4.10;99.90;;;;;;4963582;28;20081;-63
2021/05/01 00:06:48;;;;;;;1.42;1.00;;;4.10;99.90;;;;;;4960950;28;20058;-65
2021/05/01 00:09:14;;;;;;;1.83;1.20;;;4.00;99.90;;;;;;4967802;28;20057;-65
2021/05/01 00:11:41;;;;;;;2.47;1.40;;;4.00;99.90;;;;;;4961045;28;20187;-66
2021/05/01 00:14:07;;;;;;;1.58;1.30;;;4.00;99.90;;;;;;4963703;28;20054;-64
2021/05/01 00:16:34;;;;;;;1.30;1.20;;;4.10;99.90;;;;;;4962218;28;20161;-67
2021/05/01 00:19:00;;;;;;;2.25;1.20;;;4.10;99.90;;;;;;4965829;28;20149;-67
2021/05/01 00:21:27;;;;;;;3.10;1.38;;;4.10;99.90;;;;;;4960878;28;20140;-63
2021/05/01 00:23:53;;;;;;;3.15;1.40;;;4.10;99.90;;;;;;4963689;28;20046;-63
2021/05/01 00:26:20;;;;;;;1.05;0.90;;;4.10;99.90;;;;;;4962697;28;20504;-64
2021/05/01 00:28:48;;;;;;;5.35;2.70;;;4.10;99.90;;;;;;4965779;28;20098;-64
2021/05/01 00:31:17;;;;;;;1.60;1.15;;;4.10;99.90;;;;;;4962423;28;20126;-64
2021/05/01 00:33:44;;;;;;;2.40;1.23;;;4.10;99.90;;;;;;4959211;28;20067;-64
2021/05/01 00:36:11;;;;;;;1.23;0.98;;;4.10;99.90;;;;;;4962082;28;20101;-64
2021/05/01 00:38:38;;;;;;;1.85;1.33;;;4.10;99.90;;;;;;4962851;28;20060;-65
2021/05/01 00:41:05;;;;;;;2.35;1.40;;;4.00;99.90;;;;;;4961265;28;20058;-64
2021/05/01 00:43:31;;;;;;;4.25;1.27;;;4.00;99.90;;;;;;4959080;28;20634;-63
2021/05/01 00:46:04;;;;;;;1.35;0.90;;;4.00;99.90;;;;;;4961835;28;20163;-66
2021/05/01 00:48:34;;;;;;;1.92;1.10;;;3.90;99.90;;;;;;4962231;28;20046;-64
2021/05/01 00:51:02;;;;;;;1.92;0.90;;;3.90;99.90;;;;;;4961467;28;20050;-62
2021/05/01 00:53:29;;;;;;;1.25;0.80;;;3.80;99.90;;;;;;4962822;28;20062;-65
2021/05/01 00:55:56;;;;;;;2.50;1.13;;;3.90;99.90;;;;;;4967871;28;20051;-64
2021/05/01 00:58:23;;;;;;;1.15;0.75;;;4.00;99.90;;;;;;4964389;28;20564;-64
2021/05/01 01:01:07;;;;;;;1.55;0.90;;;4.10;99.90;;;;;;4965244;28;20121;-66
2021/05/01 01:03:36;;;;;;;4.05;1.40;;;4.20;99.90;;;;;;4961741;28;20058;-63
2021/05/01 01:06:04;;;;;;;2.47;1.20;;;4.30;99.90;;;;;;4967574;28;20057;-66
2021/05/01 01:08:31;;;;;;;2.63;1.30;;;4.40;99.90;;;;;;4965143;28;20085;-67
2021/05/01 01:10:57;;;;;;;1.90;1.65;;;4.40;99.90;;;;;;4964407;28;20111;-64
2021/05/01 01:13:24;;;;;;;1.05;0.80;;;4.40;99.90;;;;;;4960063;28;20420;-66
2021/05/01 01:15:51;;;;;;;1.13;0.90;;;4.40;99.90;;;;;;4965640;28;20054;-64
2021/05/01 01:18:17;;;;;;;2.08;0.93;;;4.60;99.90;;;;;;4960670;28;20659;-64
2021/05/01 01:20:44;;;;;;;3.42;1.20;;;4.60;99.90;;;;;;4962590;28;20063;-64
2021/05/01 01:23:11;;;;;;;1.83;0.85;;;4.60;99.90;;;;;;4960703;28;20054;-65
2021/05/01 01:25:37;;;;;;;3.13;1.00;;;4.60;99.90;;;;;;4962319;28;20666;-64
2021/05/01 01:28:04;;;;;;;1.17;1.00;;;4.60;99.90;;;;;;4963517;28;20074;-67
2021/05/01 01:30:32;;;;;;;4.10;1.20;;;4.50;99.90;;;;;;4965497;28;20039;-63
2021/05/01 01:33:04;;;;;;;1.52;1.27;;;4.50;99.90;;;;;;4963320;28;20483;-64
2021/05/01 01:35:31;;;;;;;4.50;1.17;;;4.50;99.90;;;;;;4959719;28;20519;-63
2021/05/01 01:37:57;;;;;;;2.88;1.45;;;4.50;99.90;;;;;;4962694;28;20464;-63
2021/05/01 01:40:24;;;;;;;2.28;0.93;;;4.40;99.90;;;;;;4964926;28;20047;-63
2021/05/01 01:42:52;;;;;;;4.07;1.25;;;4.40;99.90;;;;;;4961792;28;20050;-64
2021/05/01 01:45:21;;;;;;;3.92;1.40;;;4.30;99.90;;;;;;4961641;28;20047;-64
2021/05/01 01:47:47;;;;;;;1.10;0.88;;;4.40;99.90;;;;;;4962889;28;20050;-64
2021/05/01 01:50:17;;;;;;;1.20;1.05;;;4.40;99.90;;;;;;4970704;28;20710;-64
2021/05/01 01:52:46;;;;;;;1.50;1.27;;;4.40;99.90;;;;;;4963367;28;20055;-65
2021/05/01 01:55:15;;;;;;;2.30;0.98;;;4.50;99.90;;;;;;4967677;28;20054;-64
2021/05/01 01:57:42;;;;;;;2.78;1.10;;;4.40;99.90;;;;;;4961819;28;20051;-67
2021/05/01 02:00:24;;;;;;;1.55;1.13;;;4.40;99.90;;;;;;4968064;28;20477;-65
2021/05/01 02:02:51;;;;;;;1.23;1.13;;;4.40;99.90;;;;;;4961954;28;20050;-64
2021/05/01 02:05:18;;;;;;;4.00;1.27;;;4.40;99.90;;;;;;4964543;28;20142;-66
2021/05/01 02:07:45;;;;;;;1.42;1.17;;;4.40;99.90;;;;;;4963084;28;20078;-66
2021/05/01 02:10:13;;;;;;;1.55;1.08;;;4.40;99.90;;;;;;4966926;28;20050;-64
2021/05/01 02:12:40;;;;;;;4.43;1.35;;;4.40;99.90;;;;;;4963807;28;20105;-65
2021/05/01 02:15:21;;;;;;;4.25;1.15;;;4.30;99.90;;;;;;4965301;28;20049;-63
2021/05/01 02:17:50;;;;;;;4.55;1.35;;;4.30;99.90;;;;;;4944054;28;20050;-66
2021/05/01 02:20:23;;;;;;;3.65;1.23;;;4.30;99.90;;;;;;4963985;28;20063;-65
2021/05/01 02:22:50;;;;;;;1.80;0.95;;;4.30;99.90;;;;;;4963809;28;20122;-63
2021/05/01 02:25:18;;;;;;;1.15;0.85;;;4.20;99.90;;;;;;4962912;28;20113;-63
2021/05/01 02:27:45;;;;;;;1.38;1.25;;;4.20;99.90;;;;;;4964266;28;20157;-65
2021/05/01 02:30:16;;;;;;;2.05;1.10;;;4.20;99.90;;;;;;4965777;28;20646;-63
2021/05/01 02:32:42;;;;;;;2.28;1.30;;;4.20;99.90;;;;;;4963916;28;20465;-66
2021/05/01 02:35:12;;;;;;;3.42;1.20;;;4.20;99.90;;;;;;4966149;28;20055;-64
2021/05/01 02:37:39;;;;;;;1.90;1.30;;;4.10;99.90;;;;;;4962408;28;20453;-64
2021/05/01 02:40:08;;;;;;;2.15;0.88;;;4.10;99.90;;;;;;4963685;28;20506;-67
2021/05/01 02:42:36;;;;;;;1.45;1.20;;;4.00;99.90;;;;;;4962716;28;20552;-63
2021/05/01 02:45:08;;;;;;;2.70;1.05;;;3.80;99.90;;;;;;4970634;28;20043;-63
2021/05/01 02:47:35;;;;;;;2.63;1.20;;;3.70;99.90;;;;;;4961222;28;20067;-65
2021/05/01 02:50:04;;;;;;;2.20;1.35;;;3.60;99.90;;;;;;4967189;28;20066;-65
2021/05/01 02:52:30;;;;;;;3.40;1.15;;;3.60;99.90;;;;;;4962819;28;20074;-63
2021/05/01 02:54:57;;;;;;;1.70;1.08;;;3.50;99.90;;;;;;4963246;28;20437;-63
2021/05/01 02:57:23;;;;;;;2.08;1.20;;;3.40;99.90;;;;;;4959080;28;20489;-65
2021/05/01 02:59:50;;;;;;;2.55;1.20;;;3.40;99.90;;;;;;4962539;28;20086;-65
2021/05/01 03:02:16;;;;;;;1.45;1.33;;;3.30;99.90;;;;;;4964871;28;20681;-64
2021/05/01 03:04:43;;;;;;;4.07;1.20;;;3.30;99.90;;;;;;4962349;28;20051;-65
2021/05/01 03:07:10;;;;;;;0.85;0.70;;;3.40;99.90;;;;;;4962854;28;20131;-64
2021/05/01 03:09:37;;;;;;;6.25;1.25;;;3.40;99.90;;;;;;4961585;28;20055;-63
2021/05/01 03:12:04;;;;;;;3.80;0.93;;;3.40;99.90;;;;;;4964949;28;20121;-65
2021/05/01 03:14:31;;;;;;;1.05;0.90;;;3.50;99.90;;;;;;4961463;28;20617;-63
2021/05/01 03:16:57;;;;;;;2.88;1.02;;;3.60;99.90;;;;;;4963377;28;20055;-64
2021/05/01 03:19:24;;;;;;;2.60;0.95;;;3.60;99.90;;;;;;4960678;28;20125;-65
2021/05/01 03:21:50;;;;;;;1.83;1.10;;;3.60;99.90;;;;;;4962758;28;20062;-63
2021/05/01 03:24:17;;;;;;;6.40;0.88;;;3.60;99.90;;;;;;4963318;28;20054;-64
2021/05/01 03:26:43;;;;;;;1.45;1.15;;;3.50;99.90;;;;;;4962744;28;20054;-62
2021/05/01 03:29:10;;;;;;;1.33;1.20;;;3.40;99.90;;;;;;4963270;28;20049;-64
2021/05/01 03:31:38;;;;;;;1.63;1.48;;;3.40;99.90;;;;;;4960739;28;20169;-65
2021/05/01 03:34:04;;;;;;;1.20;1.10;;;3.30;99.90;;;;;;4962569;28;20055;-63
2021/05/01 03:36:31;;;;;;;3.38;0.85;;;3.20;99.90;;;;;;4963279;28;20058;-65
2021/05/01 03:38:58;;;;;;;2.28;1.45;;;3.20;99.90;;;;;;4963742;28;20512;-66
2021/05/01 03:41:25;;;;;;;4.72;1.35;;;3.10;99.90;;;;;;4962721;28;20054;-65
2021/05/01 03:43:51;;;;;;;2.50;1.50;;;3.10;99.90;;;;;;4964742;28;20061;-65
2021/05/01 03:46:18;;;;;;;2.05;0.90;;;3.10;99.90;;;;;;4962231;28;20074;-64
2021/05/01 03:48:44;;;;;;;2.38;1.85;;;3.10;99.90;;;;;;4964404;28;20046;-64
2021/05/01 03:51:11;;;;;;;1.33;1.23;;;3.10;99.90;;;;;;4962642;28;20097;-67
2021/05/01 03:53:37;;;;;;;2.47;1.23;;;3.20;99.90;;;;;;4961502;28;20759;-64
2021/05/01 03:56:04;;;;;;;2.15;1.15;;;3.20;99.90;;;;;;4962043;28;20054;-63
2021/05/01 03:58:30;;;;;;;2.05;1.27;;;3.20;99.90;;;;;;4962573;28;20113;-65
2021/05/01 04:00:56;;;;;;;2.22;0.93;;;3.20;99.90;;;;;;4962467;28;20050;-64
2021/05/01 04:03:23;;;;;;;7.10;4.07;;;3.30;99.90;;;;;;4960999;28;20090;-63
2021/05/01 04:05:49;;;;;;;2.00;0.93;;;3.30;99.90;;;;;;4961469;28;20416;-63
2021/05/01 04:08:16;;;;;;;4.22;1.27;;;3.20;99.90;;;;;;4964246;28;20335;-66
2021/05/01 04:10:42;;;;;;;1.38;1.08;;;3.30;99.90;;;;;;4961373;28;20564;-64
2021/05/01 04:13:09;;;;;;;1.15;1.00;;;3.30;99.90;;;;;;4962436;28;20047;-64
2021/05/01 04:15:36;;;;;;;3.17;0.75;;;3.40;99.90;;;;;;4942132;28;20157;-63
2021/05/01 04:18:03;;;;;;;2.28;0.90;;;3.40;99.90;;;;;;4961587;28;20401;-63
2021/05/01 04:20:29;;;;;;;2.00;0.90;;;3.50;99.90;;;;;;4961367;28;20077;-65
2021/05/01 04:22:57;;;;;;;2.55;1.42;;;3.50;99.90;;;;;;4963696;28;20477;-65
2021/05/01 04:25:23;;;;;;;1.40;1.10;;;3.50;99.90;;;;;;4959686;28;20052;-66
2021/05/01 04:27:50;;;;;;;3.83;1.00;;;3.60;99.90;;;;;;4964482;28;20574;-64
2021/05/01 04:30:17;;;;;;;1.00;0.80;;;3.60;99.90;;;;;;4961337;28;20047;-63
2021/05/01 04:32:43;;;;;;;3.05;1.23;;;3.60;99.90;;;;;;4965166;28;20160;-66
2021/05/01 04:35:10;;;;;;;3.40;1.58;;;3.70;99.90;;;;;;4961760;28;20074;-62
2021/05/01 04:37:36;;;;;;;2.38;0.95;;;3.80;99.90;;;;;;4943015;28;20063;-63
2021/05/01 04:40:05;;;;;;;1.15;0.90;;;3.80;99.90;;;;;;4961251;28;20192;-64
2021/05/01 04:42:31;;;;;;;3.72;1.40;;;3.90;99.90;;;;;;4965439;28;20472;-66
2021/05/01 04:44:57;;;;;;;1.58;0.80;;;3.90;99.90;;;;;;4944803;28;20054;-66
2021/05/01 04:47:25;;;;;;;1.15;0.98;;;4.00;99.90;;;;;;4961065;28;20138;-64
2021/05/01 04:49:51;;;;;;;1.52;1.08;;;4.00;99.90;;;;;;4960785;28;20046;-63
2021/05/01 04:52:18;;;;;;;1.92;1.45;;;4.10;99.90;;;;;;4962507;28;20054;-66
2021/05/01 04:54:44;;;;;;;1.77;0.95;;;4.10;99.90;;;;;;4961404;28;20059;-64
2021/05/01 04:57:10;;;;;;;2.70;1.35;;;4.20;99.90;;;;;;4966933;28;20586;-62
2021/05/01 04:59:38;;;;;;;6.15;1.05;;;4.30;99.90;;;;;;4957740;28;20050;-67
2021/05/01 05:02:04;;;;;;;1.60;0.98;;;4.40;99.90;;;;;;4965779;28;20054;-63
2021/05/01 05:04:31;;;;;;;2.50;1.00;;;4.50;99.90;;;;;;4959457;28;20054;-65
2021/05/01 05:06:57;;;;;;;2.85;1.20;;;4.50;99.90;;;;;;4962147;28;20162;-65
2021/05/01 05:09:24;;;;;;;1.38;1.13;;;4.60;99.90;;;;;;4958639;28;20592;-66
2021/05/01 05:11:50;;;;;;;1.52;1.15;;;4.70;99.90;;;;;;4964747;28;20050;-63
2021/05/01 05:14:17;;;;;;;2.55;1.77;;;4.80;99.90;;;;;;4960444;28;20043;-66
2021/05/01 05:16:43;;;;;;;1.70;1.02;;;4.90;99.90;;;;;;4962317;28;20058;-66
2021/05/01 05:19:10;;;;;;;3.88;1.45;;;4.90;99.90;;;;;;4959320;28;20050;-66
2021/05/01 05:21:37;;;;;;;3.47;1.17;;;5.00;99.90;;;;;;4960827;28;20050;-63
2021/05/01 05:24:05;;;;;;;3.50;0.93;;;5.00;99.90;;;;;;4959706;28;20062;-63
2021/05/01 05:26:31;;;;;;;1.35;1.15;;;5.00;99.90;;;;;;4962948;28;20216;-64
2021/05/01 05:28:58;;;;;;;3.55;1.58;;;5.00;99.90;;;;;;4960223;28;20480;-64
2021/05/01 05:31:25;;;;;;;2.42;2.20;;;5.00;99.90;;;;;;4962909;28;20058;-63
2021/05/01 05:33:51;;;;;;;2.03;1.30;;;5.10;99.90;;;;;;4960870;28;21387;-62
2021/05/01 05:36:18;;;;;;;3.15;1.13;;;5.10;99.90;;;;;;4962950;28;20543;-65
2021/05/01 05:38:44;;;;;;;3.20;1.63;;;5.10;99.90;;;;;;4962261;28;20038;-63
2021/05/01 05:41:11;;;;;;;1.50;1.40;;;5.20;99.90;;;;;;4965260;28;20113;-65
2021/05/01 05:43:37;;;;;;;1.52;1.15;;;5.20;99.90;;;;;;4963587;28;20806;-62
2021/05/01 05:46:14;;;;;;;3.72;1.33;;;5.20;99.90;;;;;;4965834;28;20127;-63
2021/05/01 05:48:41;;;;;;;3.72;1.42;;;5.20;99.90;;;;;;4965401;28;20077;-64
2021/05/01 05:51:07;;;;;;;2.15;1.45;;;5.30;99.90;;;;;;4964620;28;20054;-62
2021/05/01 05:53:34;;;;;;;3.25;1.15;;;5.30;99.90;;;;;;4962838;28;20050;-63
2021/05/01 05:56:00;;;;;;;2.38;1.38;;;5.40;99.90;;;;;;4965867;28;20137;-64
2021/05/01 05:58:27;;;;;;;2.35;1.20;;;5.40;99.90;;;;;;4962889;28;20638;-63
2021/05/01 06:00:53;;;;;;;1.20;1.10;;;5.50;99.90;;;;;;4967576;28;20058;-66
2021/05/01 06:03:23;;;;;;;2.97;1.10;;;5.50;99.90;;;;;;4962916;28;20121;-67
2021/05/01 06:05:55;;;;;;;4.93;1.50;;;5.60;99.90;;;;;;4966068;28;20066;-63
2021/05/01 06:08:23;;;;;;;4.05;1.33;;;5.60;99.90;;;;;;4962296;28;20059;-65
2021/05/01 06:10:50;;;;;;;3.60;1.92;;;5.70;99.90;;;;;;4966471;28;20055;-66
2021/05/01 06:13:21;;;;;;;1.92;1.48;;;5.70;99.90;;;;;;4962141;28;20129;-62
2021/05/01 06:15:47;;;;;;;1.73;1.35;;;5.80;99.90;;;;;;4964140;28;20084;-64
2021/05/01 06:18:19;;;;;;;1.40;1.30;;;5.80;99.90;;;;;;4963734;28;20046;-66
2021/05/01 06:20:45;;;;;;;4.15;1.50;;;5.90;99.90;;;;;;4968615;28;20161;-64
2021/05/01 06:23:12;;;;;;;2.72;1.13;;;5.90;99.90;;;;;;4964688;28;20058;-66
2021/05/01 06:25:39;;;;;;;2.88;1.25;;;5.90;99.90;;;;;;4963184;28;20068;-67
2021/05/01 06:28:05;;;;;;;4.57;1.77;;;6.00;99.90;;;;;;4962922;28;20068;-63
2021/05/01 06:30:32;;;;;;;3.00;1.50;;;5.90;99.90;;;;;;4965027;28;20073;-64
2021/05/01 06:33:01;;;;;;;4.30;1.45;;;6.00;99.90;;;;;;4963178;28;20051;-63
2021/05/01 06:35:27;;;;;;;1.90;1.52;;;6.00;99.90;;;;;;4962178;28;20050;-66
2021/05/01 06:37:54;;;;;;;2.40;1.00;;;6.00;99.90;;;;;;4964440;28;20074;-64
2021/05/01 06:40:25;;;;;;;2.60;1.85;;;6.00;99.90;;;;;;4965898;28;20046;-63
2021/05/01 06:43:01;;;;;;;1.70;1.15;;;6.10;99.90;;;;;;4962841;28;20062;-66
2021/05/01 06:45:28;;;;;;;5.40;1.85;;;6.10;99.90;;;;;;4960755;28;20065;-65
2021/05/01 06:48:05;;;;;;;2.17;1.30;;;6.10;99.90;;;;;;4964345;28;20084;-62
2021/05/01 06:50:33;;;;;;;2.60;1.50;;;6.10;99.90;;;;;;4963667;28;20473;-64
2021/05/01 06:53:01;;;;;;;1.45;1.35;;;6.20;99.90;;;;;;4964402;28;20054;-65
2021/05/01 06:55:30;;;;;;;2.53;1.60;;;6.20;99.90;;;;;;4961392;28;20532;-63
2021/05/01 06:57:59;;;;;;;1.45;1.35;;;6.30;99.90;;;;;;4962779;28;20042;-63
2021/05/01 07:00:27;;;;;;;1.98;1.35;;;6.30;99.90;;;;;;4964697;28;20145;-64
2021/05/01 07:02:57;;;;;;;2.72;1.10;;;6.30;99.90;;;;;;4964163;28;20460;-65
2021/05/01 07:05:24;;;;;;;2.55;1.65;;;6.40;99.90;;;;;;4961935;28;20851;-63
2021/05/01 07:07:51;;;;;;;5.57;1.33;;;6.50;99.90;;;;;;4963704;28;20051;-63
2021/05/01 07:10:18;;;;;;;5.05;1.40;;;6.50;99.90;;;;;;4963161;28;20065;-63
2021/05/01 07:12:46;;;;;;;7.13;1.83;;;6.60;99.90;;;;;;4963494;28;20783;-62
2021/05/01 07:15:16;;;;;;;2.83;1.92;;;6.70;99.90;;;;;;4961497;28;20051;-64
2021/05/01 07:17:43;;;;;;;;;;;6.80;99.90;;;;;;4964185;28;20046;-62
2021/05/01 07:20:12;;;;;;;2.05;1.50;;;6.80;99.90;;;;;;4962973;28;19933;-67
2021/05/01 07:22:39;;;;;;;2.22;1.40;;;6.80;99.90;;;;;;4964647;28;20062;-63
2021/05/01 07:25:08;;;;;;;1.88;1.48;;;6.80;99.90;;;;;;4962985;28;20117;-64
2021/05/01 07:27:53;;;;;;;2.50;1.83;;;6.90;99.90;;;;;;4967607;28;20050;-66
2021/05/01 07:30:26;;;;;;;3.45;1.65;;;6.70;99.90;;;;;;4963020;28;20074;-63
2021/05/01 07:33:09;;;;;;;6.50;1.83;;;6.70;99.90;;;;;;1480141;28;10021969;-64
2021/05/01 07:35:37;;;;;;;3.30;2.20;;;6.70;99.90;;;;;;3934461;28;10001701;-64
2021/05/01 07:38:12;;;;;;;2.03;1.60;;;6.70;99.90;;;;;;4963429;28;20109;-63
2021/05/01 07:40:39;;;;;;;2.95;1.88;;;6.70;99.90;;;;;;4964368;28;20077;-64
2021/05/01 07:43:07;;;;;;;1.73;1.20;;;6.70;99.90;;;;;;4959823;28;20065;-66
2021/05/01 07:45:35;;;;;;;3.63;2.15;;;6.90;99.90;;;;;;4960725;28;20133;-63
2021/05/01 07:48:03;;;;;;;2.47;2.13;;;6.80;99.90;;;;;;4964769;28;20050;-64
2021/05/01 07:50:30;;;;;;;1.92;1.50;;;7.00;99.90;;;;;;4962373;28;20055;-63
2021/05/01 07:52:56;;;;;;;2.13;1.58;;;7.00;99.90;;;;;;4962391;28;20098;-65
2021/05/01 07:55:23;;;;;;;2.53;1.75;;;7.00;99.90;;;;;;4961224;28;20071;-65
2021/05/01 07:57:50;;;;;;;1.67;1.58;;;6.90;99.90;;;;;;4962154;28;20059;-64
2021/05/01 08:00:18;;;;;;;1.63;1.50;;;6.90;99.90;;;;;;4961695;28;20047;-65
2021/05/01 08:02:45;;;;;;;1.38;1.27;;;6.90;99.90;;;;;;4963782;28;20940;-63
2021/05/01 08:05:13;;;;;;;5.05;2.30;;;6.90;99.90;;;;;;4962081;28;20121;-62
2021/05/01 08:07:40;;;;;;;1.60;1.50;;;6.80;99.90;;;;;;4959241;28;20085;-65
2021/05/01 08:10:08;;;;;;;2.20;1.77;;;6.80;99.90;;;;;;4962344;28;20566;-62
2021/05/01 08:12:36;;;;;;;3.35;1.80;;;6.80;99.90;;;;;;4963113;28;20054;-63
2021/05/01 08:15:05;;;;;;;3.17;2.28;;;6.80;99.90;;;;;;4961875;28;20050;-63
2021/05/01 08:17:32;;;;;;;2.92;1.95;;;6.80;99.90;;;;;;4962925;28;20141;-64
2021/05/01 08:19:58;;;;;;;4.95;1.73;;;6.80;99.90;;;;;;4961958;28;20184;-63
2021/05/01 08:22:25;;;;;;;2.40;1.85;;;6.80;99.90;;;;;;4964952;28;20051;-67
2021/05/01 08:24:51;;;;;;;4.03;2.35;;;6.80;99.90;;;;;;4962819;28;20070;-63
2021/05/01 08:27:18;;;;;;;2.95;1.90;;;6.80;99.90;;;;;;4962022;28;20551;-64
2021/05/01 08:29:44;;;;;;;3.60;2.15;;;6.80;99.90;;;;;;4960595;28;20747;-66
2021/05/01 08:32:11;;;;;;;4.55;2.25;;;6.90;99.90;;;;;;4965394;28;20043;-66
2021/05/01 08:34:42;;;;;;;2.65;2.15;;;6.80;99.90;;;;;;4961569;28;20089;-63
2021/05/01 08:37:08;;;;;;;2.22;2.00;;;6.80;99.90;;;;;;4963291;28;20050;-63
2021/05/01 08:39:36;;;;;;;2.72;2.10;;;6.80;99.90;;;;;;4959651;28;20106;-66
2021/05/01 08:42:03;;;;;;;3.42;1.90;;;6.90;99.90;;;;;;4964372;28;20050;-64
2021/05/01 08:44:30;;;;;;;4.95;2.35;;;7.00;99.90;;;;;;4960510;28;20105;-64
2021/05/01 08:46:56;;;;;;;3.17;2.35;;;7.20;99.90;;;;;;4963022;28;20081;-65
2021/05/01 08:49:23;;;;;;;3.22;1.88;;;7.40;99.90;;;;;;4960034;28;20090;-64
2021/05/01 08:51:50;;;;;;;4.13;2.38;;;7.40;99.90;;;;;;4966470;28;20054;-66
2021/05/01 08:54:16;;;;;;;2.80;2.30;;;7.40;99.90;;;;;;4959970;28;20047;-64
2021/05/01 08:56:43;;;;;;;4.60;2.85;;;7.50;99.90;;;;;;4968330;28;20113;-64
2021/05/01 08:59:10;;;;;;;6.68;3.45;;;7.40;99.90;;;;;;4960295;28;20565;-64
2021/05/01 09:01:39;;;;;;;3.40;2.42;;;7.50;99.90;;;;;;4961025;28;20404;-65
2021/05/01 09:04:08;;;;;;;1.95;1.75;;;7.60;99.90;;;;;;4961849;28;20058;-64
2021/05/01 09:06:36;;;;;;;4.57;2.45;;;7.60;99.90;;;;;;4961966;28;20054;-63
2021/05/01 09:09:08;;;;;;;9.55;2.65;;;7.60;99.90;;;;;;4959039;28;20063;-63
2021/05/01 09:11:38;;;;;;;3.90;2.33;;;7.40;99.90;;;;;;4961028;28;20704;-63
2021/05/01 09:14:14;;;;;;;2.50;2.30;;;7.30;99.90;;;;;;4963198;28;20050;-63
2021/05/01 09:16:41;;;;;;;4.57;2.33;;;7.30;99.90;;;;;;4966243;28;20042;-64
2021/05/01 09:19:08;;;;;;;3.08;2.17;;;7.10;99.90;;;;;;4962209;28;20082;-64
2021/05/01 09:21:35;;;;;;;7.80;3.50;;;7.10;99.90;;;;;;4964646;28;20098;-63
2021/05/01 09:24:03;;;;;;;2.50;2.00;;;7.20;99.90;;;;;;4964816;28;20109;-64
2021/05/01 09:26:55;;;;;;;3.47;3.17;;;7.20;99.90;;;;;;4966698;28;20062;-63
2021/05/01 09:29:35;;;;;;;6.38;2.45;;;7.20;99.90;;;;;;4959808;28;20058;-62
2021/05/01 09:32:04;;;;;;;3.67;2.10;;;7.30;99.90;;;;;;4964844;28;20062;-63
2021/05/01 09:34:46;;;;;;;2.58;2.05;;;7.50;99.90;;;;;;4963711;28;20050;-63
2021/05/01 09:37:13;;;;;;;4.22;2.30;;;7.60;99.90;;;;;;4963611;28;20469;-67
2021/05/01 09:39:47;;;;;;;2.47;1.95;;;7.80;99.90;;;;;;4963123;28;21028;-64
2021/05/01 09:42:16;;;;;;;11.85;4.15;;;7.80;99.90;;;;;;4965401;28;20470;-65
2021/05/01 09:44:44;;;;;;;3.13;2.03;;;8.00;99.90;;;;;;4964748;28;20043;-64
2021/05/01 09:47:16;;;;;;;4.03;2.33;;;8.10;99.90;;;;;;4964006;28;20197;-66
2021/05/01 09:49:46;;;;;;;2.85;2.22;;;8.20;99.90;;;;;;4963295;28;20087;-67
2021/05/01 09:52:15;;;;;;;2.83;1.50;;;8.30;99.90;;;;;;4963283;28;20125;-63
2021/05/01 09:54:42;;;;;;;2.10;1.90;;;8.00;99.90;;;;;;4965026;28;20043;-66
2021/05/01 09:57:09;;;;;;;2.47;2.28;;;8.10;99.90;;;;;;4964000;28;20050;-64
2021/05/01 09:59:41;;;;;;;2.17;1.98;;;8.10;99.90;;;;;;4962055;28;20587;-63
2021/05/01 10:02:19;;;;;;;2.60;2.17;;;7.90;99.90;;;;;;4964183;28;20059;-65
2021/05/01 10:05:13;;;;;;;2.20;2.00;;;7.90;99.90;;;;;;4964174;28;20073;-65
2021/05/01 10:07:51;;;;;;;6.47;2.17;;;7.90;99.90;;;;;;4955624;28;20066;-63
2021/05/01 10:10:18;;;;;;;2.40;1.40;;;8.10;99.90;;;;;;4961045;28;20054;-63
2021/05/01 10:12:45;;;;;;;1.35;1.25;;;8.40;99.90;;;;;;4961399;28;20048;-63
2021/05/01 10:15:27;;;;;;;5.07;1.90;;;8.40;99.90;;;;;;4963802;28;20054;-66
2021/05/01 10:18:09;;;;;;;2.97;1.60;;;8.50;99.90;;;;;;4957907;28;20074;-63
2021/05/01 10:20:41;;;;;;;2.92;1.80;;;8.60;99.90;;;;;;4963986;28;20050;-66
2021/05/01 10:23:09;;;;;;;1.33;1.20;;;8.70;99.90;;;;;;4959273;28;20043;-67
2021/05/01 10:25:36;;;;;;;1.63;1.52;;;8.70;99.90;;;;;;4960766;28;20986;-63
2021/05/01 10:28:14;;;;;;;1.40;1.20;;;8.80;99.90;;;;;;4961925;28;20043;-64
2021/05/01 10:30:52;;;;;;;1.45;1.27;;;8.80;99.90;;;;;;4961790;28;20509;-63
2021/05/01 10:35:54;;;;;;;4.57;2.00;;;8.50;99.90;;;;;;4963585;28;20154;-65
2021/05/01 10:38:22;;;;;;;5.78;1.73;;;8.70;99.90;;;;;;4961425;28;20046;-62
2021/05/01 10:40:51;;;;;;;3.95;1.33;;;8.90;99.90;;;;;;4964169;28;20046;-64
2021/05/01 10:43:24;;;;;;;2.15;1.55;;;9.00;99.90;;;;;;4957031;28;20142;-63
2021/05/01 10:45:57;;;;;;;4.22;1.83;;;9.00;99.90;;;;;;4962919;28;20050;-63
2021/05/01 10:48:25;;;;;;;1.38;1.25;;;9.00;99.90;;;;;;4960706;28;20128;-66
2021/05/01 10:51:00;;;;;;;3.00;1.77;;;9.10;99.90;;;;;;4962346;28;20055;-64
2021/05/01 10:53:27;;;;;;;5.55;1.77;;;8.90;99.90;;;;;;4957207;28;20051;-65
2021/05/01 10:55:55;;;;;;;3.05;1.45;;;9.00;99.90;;;;;;4961656;28;20362;-64
2021/05/01 10:58:49;;;;;;;1.73;1.10;;;9.10;99.90;;;;;;4961215;28;20135;-64
2021/05/01 11:01:35;;;;;;;1.92;1.58;;;9.30;99.90;;;;;;4960941;28;20783;-63
2021/05/01 11:04:25;;;;;;;1.98;1.77;;;9.40;99.90;;;;;;4958499;28;20069;-63
2021/05/01 11:07:07;;;;;;;5.53;2.03;;;9.50;99.90;;;;;;4960899;28;20337;-66
2021/05/01 11:09:40;;;;;;;3.17;1.33;;;9.70;99.90;;;;;;4957208;28;20058;-63
2021/05/01 11:12:29;;;;;;;2.30;1.90;;;9.70;99.90;;;;;;4960850;28;20046;-64
2021/05/01 11:15:06;;;;;;;2.00;1.52;;;9.40;99.90;;;;;;4959436;28;20382;-63
2021/05/01 11:17:33;;;;;;;1.65;1.55;;;9.10;99.90;;;;;;4961175;28;20046;-63
2021/05/01 11:20:07;;;;;;;1.40;1.15;;;9.20;99.90;;;;;;4959412;28;20456;-65
2021/05/01 11:22:36;;;;;;;3.45;1.48;;;9.00;99.90;;;;;;4954805;28;20038;-63
2021/05/01 11:25:11;;;;;;;2.88;1.55;;;9.10;99.90;;;;;;4959599;28;20062;-63
2021/05/01 11:27:39;;;;;;;3.33;1.40;;;9.30;99.90;;;;;;4958750;28;20085;-63
2021/05/01 11:30:07;;;;;;;1.25;1.15;;;9.40;99.90;;;;;;4956763;28;20058;-65
2021/05/01 11:32:34;;;;;;;1.17;1.08;;;9.50;99.90;;;;;;4960242;28;20046;-64
2021/05/01 11:35:08;;;;;;;1.08;1.00;;;9.60;99.80;;;;;;4958939;28;20047;-66
2021/05/01 11:37:40;;;;;;;5.88;1.63;;;9.60;97.80;;;;;;4958759;28;20758;-63
2021/05/01 11:40:10;;;;;;;2.17;1.20;;;9.50;99.70;;;;;;4958734;28;20054;-63
2021/05/01 11:42:38;;;;;;;1.63;1.07;;;9.80;99.70;;;;;;4959427;28;20870;-64
2021/05/01 11:45:19;;;;;;;1.27;1.17;;;9.90;99.60;;;;;;4959796;28;20047;-62
2021/05/01 11:47:51;;;;;;;1.45;1.27;;;10.00;96.40;;;;;;4958019;28;20137;-64
2021/05/01 11:50:19;;;;;;;2.45;1.05;;;10.20;96.30;;;;;;4953773;28;20133;-63
2021/05/01 11:53:11;;;;;;;1.35;1.25;;;10.20;95.80;;;;;;4964146;28;20452;-63
2021/05/01 11:55:46;;;;;;;1.48;1.15;;;10.30;95.80;;;;;;4960658;28;20066;-67
2021/05/01 11:58:30;;;;;;;3.13;1.38;;;10.30;98.00;;;;;;4961745;28;20050;-65
2021/05/01 12:01:22;;;;;;;4.28;1.10;;;10.20;98.70;;;;;;4961630;28;20078;-67
2021/05/01 12:03:59;;;;;;;2.65;1.58;;;10.20;98.30;;;;;;4960615;28;20406;-62
2021/05/01 12:06:40;;;;;;;2.92;1.35;;;10.20;99.10;;;;;;4961074;28;20069;-65
2021/05/01 12:09:12;;;;;;;2.05;1.15;;;10.50;97.30;;;;;;4962705;28;20070;-63
2021/05/01 12:11:43;;;;;;;1.85;0.95;;;10.60;96.80;;;;;;4959225;28;20058;-66
2021/05/01 12:14:11;;;;;;;1.40;1.30;;;10.70;94.40;;;;;;4959569;28;20051;-63
2021/05/01 12:16:38;;;;;;;1.83;1.08;;;10.50;95.80;;;;;;4963913;28;20078;-67
2021/05/01 12:19:05;;;;;;;2.25;1.23;;;10.80;96.50;;;;;;4941881;28;20047;-65
2021/05/01 12:21:41;;;;;;;1.55;1.05;;;10.70;95.10;;;;;;4962732;28;20473;-63
2021/05/01 12:24:30;;;;;;;1.60;1.20;;;10.80;93.40;;;;;;4959626;28;20150;-64
2021/05/01 12:26:57;;;;;;;1.42;1.33;;;10.80;96.20;;;;;;4958722;28;20050;-63
2021/05/01 12:29:27;;;;;;;2.35;1.90;;;10.70;94.10;;;;;;4955656;28;20181;-65
2021/05/01 12:32:07;;;;;;;3.20;1.60;;;10.70;92.90;;;;;;4955551;28;20066;-63
2021/05/01 12:34:46;;;;;;;;;;;10.80;93.90;;;;;;4962366;28;20141;-67
2021/05/01 12:37:14;;;;;;;3.53;1.30;;;11.00;94.30;;;;;;4961311;28;19969;-63
2021/05/01 12:39:42;;;;;;;2.03;1.83;;;10.70;93.80;;;;;;4960859;28;20047;-63
2021/05/01 12:42:19;;;;;;;1.63;1.52;;;10.70;94.10;;;;;;4960140;28;20057;-63
2021/05/01 12:44:50;;;;;;;1.20;1.10;;;10.70;93.10;;;;;;4964023;28;20058;-63
2021/05/01 12:47:35;;;;;;;1.73;1.40;;;10.70;95.10;;;;;;4961605;28;20059;-65
2021/05/01 12:50:11;;;;;;;2.67;1.33;;;10.90;94.80;;;;;;4954622;28;20054;-64
2021/05/01 12:52:40;;;;;;;3.05;1.27;;;10.70;95.10;;;;;;4963042;28;20051;-62
2021/05/01 12:55:07;;;;;;;2.00;1.30;;;10.60;93.40;;;;;;4944066;28;20050;-63
2021/05/01 12:57:36;;;;;;;3.75;1.83;;;10.70;95.00;;;;;;4960679;28;20727;-64
2021/05/01 13:00:19;;;;;;;2.47;1.67;;;10.90;94.70;;;;;;4962371;28;20079;-63
2021/05/01 13:03:16;;;;;;;2.92;1.73;;;11.10;95.70;;;;;;4963108;28;20045;-65
2021/05/01 13:05:48;;;;;;;1.48;1.38;;;10.80;95.90;;;;;;4940846;28;20576;-66
2021/05/01 13:08:26;;;;;;;2.90;1.88;;;10.50;97.80;;;;;;4962400;28;20583;-66
2021/05/01 13:10:54;;;;;;;2.25;1.60;;;10.70;99.80;;;;;;4962509;28;20082;-63